Russelville, Illinois
Current Conditions -  °F | °C
As of 1:53 AM on Wednesday 22 Oct 2014 (Local Time) from KLWV Reporting Station
Clear Clear  
Wind Chill: 40°   Ceiling: Unl
Heat Index: 44°   Visibility: 10mi
Dew Point: 41°   Wind: 7mph
Humidity: 89%   Direction: 40°NE
Pressure: 30.22"   Gusts: NA
Location:  38.7501°N, 87.6141°W
Report Text: KLWV 220653Z AUTO 04006KT 10SM CLR 07/05 A3022 RMK AO2 SLP234 T00670050
Loading
Personal Weather Stations






























Interactive Weather Map
Tropical Storm Tracking
New forecast layout! Learn more

10-Day Weather Forecast

Advertisements
Track Severe Weather on mobile